createdAt,value
2017-08-21T00:01:34.254Z,74.19
2017-08-21T00:03:58.137Z,74.29
2017-08-21T00:06:22.007Z,74.1
2017-08-21T00:08:45.896Z,74.39
2017-08-21T00:12:46.024Z,75.21
2017-08-21T00:15:01.500Z,75.4
2017-08-21T00:17:08.565Z,75.4
2017-08-21T00:19:18.930Z,75.25
2017-08-21T00:21:42.825Z,74.77
2017-08-21T00:23:58.304Z,74.96
2017-08-21T00:26:22.199Z,74.48
2017-08-21T00:28:46.076Z,74.39
2017-08-21T00:31:09.941Z,74.64
2017-08-21T00:33:33.817Z,74.48
2017-08-21T00:35:57.589Z,74.73
2017-08-21T00:38:21.459Z,74.19
2017-08-21T00:40:45.353Z,73.43
2017-08-21T00:43:00.730Z,73.24
2017-08-21T00:45:24.597Z,73.04
2017-08-21T00:47:48.409Z,73.49
2017-08-21T00:50:12.252Z,73.62
2017-08-21T00:52:36.133Z,73.33
2017-08-21T00:54:59.936Z,73.14
2017-08-21T00:57:23.774Z,73.24
2017-08-21T00:59:47.555Z,73.52
2017-08-21T01:02:11.447Z,73.33
2017-08-21T01:04:35.311Z,73.33
2017-08-21T01:06:59.180Z,73.14
2017-08-21T01:10:59.371Z,73.91
2017-08-21T01:13:23.310Z,74.48
2017-08-21T01:15:47.182Z,74.87
2017-08-21T01:17:49.092Z,75.5
2017-08-21T01:20:04.522Z,76.07
2017-08-21T01:22:28.405Z,76.17
2017-08-21T01:24:52.269Z,75.89
2017-08-21T01:27:16.155Z,75.4
2017-08-21T01:29:40.035Z,75.4
2017-08-21T01:31:51.231Z,74.87
2017-08-21T01:34:15.192Z,74.68
2017-08-21T01:36:39.073Z,75.06
2017-08-21T01:39:02.934Z,75.45
2017-08-21T01:41:26.823Z,76.07
2017-08-21T01:43:50.694Z,75.35
2017-08-21T01:46:14.570Z,76.07
2017-08-21T01:48:38.454Z,77.33
2017-08-21T01:51:02.293Z,77.67
2017-08-21T01:53:26.106Z,78.25
2017-08-21T01:55:49.985Z,77.04
2017-08-21T01:58:13.863Z,77.13
2017-08-21T02:00:29.263Z,77.76
2017-08-21T02:02:53.030Z,79.39
2017-08-21T02:05:16.887Z,78.57
2017-08-21T02:07:32.254Z,79.21
2017-08-21T02:09:39.237Z,79.78
2017-08-21T02:12:03.122Z,79.88
2017-08-21T02:14:18.575Z,79.34
2017-08-21T02:16:42.476Z,77.51
2017-08-21T02:19:06.360Z,77.9
2017-08-21T02:21:30.218Z,76.75
2017-08-21T02:23:45.612Z,76.88
2017-08-21T02:26:09.484Z,75.92
2017-08-21T02:28:33.371Z,76.59
2017-08-21T02:30:43.726Z,76.84
2017-08-21T02:33:07.604Z,76.75
2017-08-21T02:35:31.482Z,76.4
2017-08-21T02:37:55.371Z,76.4
2017-08-21T02:40:19.232Z,76.21
2017-08-21T02:42:43.117Z,76.12
2017-08-21T02:44:58.575Z,76.02
2017-08-21T02:47:22.491Z,75.92
2017-08-21T02:49:37.948Z,76.5
2017-08-21T02:52:01.827Z,76.21
2017-08-21T02:54:25.702Z,76.12
2017-08-21T02:56:41.176Z,75.45
2017-08-21T02:58:56.662Z,76.17
2017-08-21T03:01:20.546Z,76.59
2017-08-21T03:03:44.412Z,76.4
2017-08-21T03:06:08.291Z,76.94
2017-08-21T03:08:32.186Z,77.42
2017-08-21T03:10:56.071Z,77.04
2017-08-21T03:13:19.875Z,77.13
2017-08-21T03:15:43.698Z,76.84
2017-08-21T03:17:54.062Z,77.33
2017-08-21T03:20:17.985Z,77.71
2017-08-21T03:22:41.735Z,77.42
2017-08-21T03:25:05.584Z,77.8
2017-08-21T03:27:29.360Z,77.71
2017-08-21T03:29:53.247Z,77.61
2017-08-21T03:32:17.024Z,77.51
2017-08-21T03:34:32.497Z,77.61
2017-08-21T03:36:47.905Z,77.9
2017-08-21T03:39:11.680Z,78.96
2017-08-21T03:41:35.456Z,78
2017-08-21T03:43:59.204Z,79.14
2017-08-21T03:46:23.079Z,79.24
2017-08-21T03:48:46.857Z,80.35
2017-08-21T03:51:10.715Z,79.88
2017-08-21T03:55:02.503Z,80.01
2017-08-21T03:57:26.343Z,79.78
2017-08-21T03:59:50.217Z,79.88
2017-08-21T04:02:13.981Z,80.55
2017-08-21T04:04:37.764Z,79.97
2017-08-21T04:06:53.159Z,80.83
2017-08-21T04:10:53.209Z,80.35
2017-08-21T04:14:53.270Z,80.45
2017-08-21T04:17:17.185Z,80.45
2017-08-21T04:19:40.975Z,80.45
2017-08-21T04:21:56.355Z,81.02
2017-08-21T04:24:20.130Z,80.35
2017-08-21T04:26:44.001Z,80.07
2017-08-21T04:28:59.380Z,79.82
2017-08-21T04:31:23.153Z,80.26
2017-08-21T04:33:47.033Z,80.01
2017-08-21T04:36:10.917Z,80.2
2017-08-21T04:38:34.785Z,78.57
2017-08-21T04:40:58.666Z,78.77
2017-08-21T04:43:22.546Z,78.32
2017-08-21T04:45:46.416Z,78.57
2017-08-21T04:48:10.295Z,78.86
2017-08-21T04:50:34.173Z,78.23
2017-08-21T04:52:49.538Z,79.05
2017-08-21T04:55:04.929Z,79.63
2017-08-21T04:57:28.805Z,79.14
2017-08-21T04:59:52.681Z,77.8
2017-08-21T05:02:25.213Z,77.23
2017-08-21T05:04:48.924Z,77.71
2017-08-21T05:07:15.166Z,76.59
2017-08-21T05:09:39.045Z,76.88
2017-08-21T05:12:02.924Z,75.82
2017-08-21T05:14:34.692Z,75.73
2017-08-21T05:16:58.457Z,75.38
2017-08-21T05:19:23.382Z,75.35
2017-08-21T05:23:22.830Z,74.96
2017-08-21T05:25:55.262Z,75.54
2017-08-21T05:28:19.096Z,75
2017-08-21T05:30:42.904Z,76.02
2017-08-21T05:34:42.911Z,75.48
2017-08-21T05:38:42.460Z,75.2
2017-08-21T05:40:57.901Z,74.71
2017-08-21T05:43:21.787Z,73.98
2017-08-21T05:45:45.719Z,74.27
2017-08-21T05:49:45.261Z,73.88
2017-08-21T05:52:00.786Z,74.08
2017-08-21T05:56:00.809Z,74.65
2017-08-21T05:58:24.709Z,73.25
2017-08-21T06:01:03.258Z,72.83
2017-08-21T06:03:27.141Z,73.31
2017-08-21T06:05:51.015Z,72.83
2017-08-21T06:09:37.653Z,72.92
2017-08-21T06:12:01.695Z,72.92
2017-08-21T06:14:25.681Z,72.48
2017-08-21T06:16:49.654Z,72.38
2017-08-21T06:19:14.676Z,72.09
2017-08-21T06:21:38.644Z,72.13
2017-08-21T06:23:54.225Z,72.42
2017-08-21T06:26:18.154Z,71.65
2017-08-21T06:28:28.062Z,70.88
2017-08-21T06:30:44.668Z,70.68
2017-08-21T06:33:01.271Z,69.95
2017-08-21T06:35:27.303Z,70.4
2017-08-21T06:37:29.163Z,69.89
2017-08-21T06:39:30.512Z,69.12
2017-08-21T06:41:54.585Z,68.19
2017-08-21T06:44:18.672Z,68.29
2017-08-21T06:46:42.759Z,67.42
2017-08-21T06:49:06.835Z,66.59
2017-08-21T06:51:31.024Z,63.31
2017-08-21T06:53:55.213Z,60.89
2017-08-21T06:56:19.394Z,58.72
2017-08-21T06:58:44.316Z,58.89
2017-08-21T07:01:00.193Z,58.53
2017-08-21T07:03:24.481Z,59.73
2017-08-21T07:05:34.971Z,58.76
2017-08-21T07:07:59.327Z,59.6
2017-08-21T07:10:23.624Z,59.73
2017-08-21T07:12:39.523Z,61.96
2017-08-21T07:15:03.902Z,60.83
2017-08-21T07:17:05.345Z,61.38
2017-08-21T07:19:29.745Z,62.34
2017-08-21T07:21:54.124Z,59.18
2017-08-21T07:23:55.707Z,57.15
2017-08-21T07:26:11.685Z,55.56
2017-08-21T07:30:12.446Z,54.91
2017-08-21T07:32:28.543Z,56.04
2017-08-21T07:34:53.020Z,56.07
2017-08-21T07:37:17.515Z,55.2
2017-08-21T07:39:42.010Z,53.08
2017-08-21T07:41:58.220Z,52.4
2017-08-21T07:44:14.439Z,47.03
2017-08-21T07:46:39.213Z,48.93
2017-08-21T07:49:04.000Z,47.32
2017-08-21T07:51:20.429Z,43.24
2017-08-21T07:53:45.410Z,41.52
2017-08-21T07:56:10.633Z,44.52
2017-08-21T07:58:36.947Z,45.25
2017-08-21T08:01:01.782Z,46.69
2017-08-21T08:03:26.773Z,44.98
2017-08-21T08:05:20.377Z,47.25
2017-08-21T08:07:36.952Z,49.12
2017-08-21T08:10:01.865Z,48.88
2017-08-21T08:12:26.748Z,49.54
2017-08-21T08:14:51.646Z,50.56
2017-08-21T08:17:16.547Z,49.76
2017-08-21T08:19:41.447Z,50.6
2017-08-21T08:21:43.522Z,49.85
2017-08-21T08:24:08.410Z,48.85
2017-08-21T08:26:33.310Z,49.27
2017-08-21T08:28:44.575Z,49.15
2017-08-21T08:30:46.966Z,51.55
2017-08-21T08:33:03.601Z,49.92
2017-08-21T08:35:28.382Z,50.09
2017-08-21T08:37:54.167Z,49.15
2017-08-21T08:40:21.898Z,46.71
2017-08-21T08:42:47.492Z,46.61
2017-08-21T08:45:15.805Z,48.18
2017-08-21T08:47:42.946Z,47.42
2017-08-21T08:51:22.986Z,43.29
2017-08-21T08:53:50.689Z,41.21
2017-08-21T08:56:16.933Z,42.59
2017-08-21T08:58:44.261Z,43.74
2017-08-21T09:02:47.787Z,40.55
2017-08-21T09:05:15.128Z,40.64
2017-08-21T09:07:25.889Z,38.37
2017-08-21T09:09:51.198Z,37.59
2017-08-21T09:12:16.312Z,41.09
2017-08-21T09:14:33.130Z,40.99
2017-08-21T09:16:58.344Z,39.43
2017-08-21T09:19:23.522Z,36.8
2017-08-21T09:21:34.306Z,37.41
2017-08-21T09:23:59.639Z,34.66
2017-08-21T09:26:25.045Z,35.76
2017-08-21T09:28:35.412Z,32.84
2017-08-21T09:31:00.824Z,36.33
2017-08-21T09:33:26.151Z,36
2017-08-21T09:35:28.461Z,37.02
2017-08-21T09:37:53.817Z,35.31
2017-08-21T09:40:19.055Z,33.53
2017-08-21T09:42:44.448Z,33.48
2017-08-21T09:45:02.279Z,32.45
2017-08-21T09:47:27.686Z,30.76
2017-08-21T09:49:53.010Z,30.15
2017-08-21T09:52:09.927Z,32.17
2017-08-21T09:54:27.843Z,31.51
2017-08-21T09:56:53.325Z,32.95
2017-08-21T09:59:18.811Z,31.24
2017-08-21T10:01:44.314Z,30.27
2017-08-21T10:04:09.762Z,30.16
2017-08-21T10:06:35.242Z,29.32
2017-08-21T10:09:00.647Z,29.06
2017-08-21T10:11:26.055Z,30.8
2017-08-21T10:13:51.531Z,34.11
2017-08-21T10:16:17.149Z,36.9
2017-08-21T10:18:42.521Z,33.59
2017-08-21T10:21:07.805Z,34.47
2017-08-21T10:23:33.111Z,35.24
2017-08-21T10:25:58.617Z,37.11
2017-08-21T10:28:24.118Z,35.92
2017-08-21T10:30:49.481Z,38.59
2017-08-21T10:33:15.129Z,36.33
2017-08-21T10:35:41.427Z,34.41
2017-08-21T10:38:06.742Z,36.28
2017-08-21T10:40:31.946Z,36.25
2017-08-21T10:42:57.144Z,36.58
2017-08-21T10:45:22.313Z,36.21
2017-08-21T10:47:48.122Z,36.7
2017-08-21T10:50:13.580Z,37.23
2017-08-21T10:52:38.727Z,36.37
2017-08-21T10:55:03.851Z,36.27
2017-08-21T10:57:28.873Z,35.85
2017-08-21T10:59:54.063Z,35.72
2017-08-21T11:02:19.284Z,36.49
2017-08-21T11:04:44.387Z,35.31
2017-08-21T11:07:00.861Z,36.43
2017-08-21T11:09:26.085Z,37.35
2017-08-21T11:11:51.155Z,34.75
2017-08-21T11:14:16.461Z,34.19
2017-08-21T11:16:41.448Z,34.26
2017-08-21T11:19:06.465Z,35.9
2017-08-21T11:21:31.555Z,35.24
2017-08-21T11:23:56.880Z,35.16
2017-08-21T11:26:22.946Z,37.3
2017-08-21T11:28:50.106Z,37.85
2017-08-21T11:31:16.102Z,37.93
2017-08-21T11:33:42.358Z,36.7
2017-08-21T11:36:07.526Z,37.77
2017-08-21T11:38:32.630Z,37.09
2017-08-21T11:40:58.784Z,37.68
2017-08-21T11:43:23.850Z,39.78
2017-08-21T11:45:48.974Z,38.93
2017-08-21T11:48:14.092Z,37.5
2017-08-21T11:50:39.090Z,37.62
2017-08-21T11:53:04.072Z,39.14
2017-08-21T11:55:28.994Z,38.83
2017-08-21T11:57:53.912Z,39.9
2017-08-21T12:00:18.781Z,41.44
2017-08-21T12:02:43.792Z,39.39
2017-08-21T12:05:08.639Z,39.03
2017-08-21T12:07:33.589Z,39.98
2017-08-21T12:09:58.798Z,38.24
2017-08-21T12:15:01.298Z,37.52
2017-08-21T12:17:26.173Z,38.73
2017-08-21T12:19:51.354Z,37.35
2017-08-21T12:22:16.166Z,35.98
2017-08-21T12:24:41.046Z,34.83
2017-08-21T12:27:06.031Z,36.02
2017-08-21T12:29:31.220Z,36.45
2017-08-21T12:31:56.345Z,35.55
2017-08-21T12:34:21.384Z,34.31
2017-08-21T12:36:47.013Z,38.24
2017-08-21T12:39:11.994Z,38.05
2017-08-21T12:41:37.038Z,37.45
2017-08-21T12:44:01.962Z,37.15
2017-08-21T12:46:26.936Z,37.68
2017-08-21T12:48:51.878Z,36.94
2017-08-21T12:51:16.763Z,36.88
2017-08-21T12:53:41.631Z,40.89
2017-08-21T12:56:06.669Z,37.7
2017-08-21T12:58:33.611Z,37.1
2017-08-21T13:00:58.610Z,37.12
2017-08-21T13:03:23.516Z,38.26
2017-08-21T13:05:48.422Z,38.28
2017-08-21T13:08:13.273Z,37.97
2017-08-21T13:10:38.069Z,37.13
2017-08-21T13:13:02.896Z,36.74
2017-08-21T13:17:03.611Z,39.04
2017-08-21T13:19:28.404Z,38.32
2017-08-21T13:21:31.629Z,37.45
2017-08-21T13:23:56.564Z,38.07
2017-08-21T13:26:12.960Z,38.17
2017-08-21T13:28:29.354Z,39.82
2017-08-21T13:30:30.920Z,40.6
2017-08-21T13:32:41.084Z,40.23
2017-08-21T13:35:05.949Z,40.01
2017-08-21T13:37:30.751Z,40.75
2017-08-21T13:39:55.511Z,40.75
2017-08-21T13:42:11.916Z,40.58
2017-08-21T13:44:36.707Z,40.13
2017-08-21T13:47:01.429Z,40.69
2017-08-21T13:49:26.680Z,40.39
2017-08-21T13:51:51.379Z,39.06
2017-08-21T13:54:16.133Z,40.5
2017-08-21T13:56:41.893Z,39.26
2017-08-21T13:59:08.453Z,39.94
2017-08-21T14:01:33.775Z,40.5
2017-08-21T14:04:02.163Z,39.78
2017-08-21T14:08:12.947Z,38.57
2017-08-21T14:10:37.498Z,40.58
2017-08-21T14:13:02.951Z,38.19
2017-08-21T14:15:30.570Z,38.87
2017-08-21T14:17:59.066Z,39.06
2017-08-21T14:20:24.465Z,38.24
2017-08-21T14:22:49.587Z,39.41
2017-08-21T14:25:14.536Z,38.54
2017-08-21T14:27:40.946Z,39.06
2017-08-21T14:30:06.736Z,39.36
2017-08-21T14:32:31.576Z,38.79
2017-08-21T14:34:57.539Z,37.45
2017-08-21T14:37:22.439Z,38.42
2017-08-21T14:39:53.897Z,38.31
2017-08-21T14:41:56.069Z,39.96
2017-08-21T14:44:20.974Z,40.21
2017-08-21T14:46:23.150Z,41.33
2017-08-21T14:48:47.931Z,42.6
2017-08-21T14:51:13.092Z,40.77
2017-08-21T14:53:37.794Z,41.53
2017-08-21T14:56:03.081Z,42.85
2017-08-21T14:58:28.713Z,42.48
2017-08-21T15:00:57.903Z,42.46
2017-08-21T15:03:22.572Z,42.02
2017-08-21T15:05:53.873Z,41.06
2017-08-21T15:08:18.893Z,41.92
2017-08-21T15:10:46.920Z,40.5
2017-08-21T15:13:11.739Z,42.19
2017-08-21T15:15:36.422Z,42.09
2017-08-21T15:18:01.193Z,42.29
2017-08-21T15:20:26.333Z,42.65
2017-08-21T15:22:51.003Z,42.19
2017-08-21T15:25:07.522Z,42.29
2017-08-21T15:27:32.486Z,43.04
2017-08-21T15:29:57.228Z,42.29
2017-08-21T15:32:21.808Z,42.29
2017-08-21T15:34:46.683Z,42.29
2017-08-21T15:37:11.610Z,42.09
2017-08-21T15:39:36.222Z,42.09
2017-08-21T15:42:01.253Z,41.24
2017-08-21T15:44:26.993Z,41.51
2017-08-21T15:46:53.037Z,41.51
2017-08-21T15:49:17.676Z,41.89
2017-08-21T15:51:42.260Z,41.41
2017-08-21T15:54:06.956Z,41.06
2017-08-21T15:56:31.629Z,41.97
2017-08-21T15:58:56.303Z,42.54
2017-08-21T16:01:10.159Z,43.21
2017-08-21T16:03:35.352Z,42.55
2017-08-21T16:06:01.416Z,41.99
2017-08-21T16:08:27.769Z,41.99
2017-08-21T16:10:53.155Z,41.92
2017-08-21T16:13:18.977Z,41.7
2017-08-21T16:15:46.754Z,41.31
2017-08-21T16:18:18.271Z,41.43
2017-08-21T16:20:42.946Z,41.22
2017-08-21T16:23:07.535Z,41.2
2017-08-21T16:25:33.649Z,41.2
2017-08-21T16:27:58.505Z,40.75
2017-08-21T16:30:24.587Z,40.73
2017-08-21T16:32:49.405Z,41.14
2017-08-21T16:35:13.880Z,42.71
2017-08-21T16:37:16.818Z,42.54
2017-08-21T16:39:42.440Z,42.63
2017-08-21T16:42:07.052Z,42.26
2017-08-21T16:44:31.662Z,42.34
2017-08-21T16:46:56.322Z,42.46
2017-08-21T16:49:20.980Z,41.61
2017-08-21T16:51:45.571Z,42.44
2017-08-21T16:54:10.166Z,42.86
2017-08-21T16:56:34.709Z,43.5
2017-08-21T16:58:59.374Z,43.13
2017-08-21T17:01:23.951Z,43.21
2017-08-21T17:04:03.366Z,43.68
2017-08-21T17:06:27.853Z,44.45
2017-08-21T17:08:52.448Z,43.68
2017-08-21T17:11:17.068Z,44.35
2017-08-21T17:13:41.584Z,44.57
2017-08-21T17:16:06.170Z,43.5
2017-08-21T17:18:30.855Z,44.84
2017-08-21T17:20:56.657Z,44.93
2017-08-21T17:23:21.082Z,46.09
2017-08-21T17:25:47.061Z,44.93
2017-08-21T17:28:12.462Z,45.98
2017-08-21T17:30:37.281Z,45.2
2017-08-21T17:33:01.886Z,45.03
2017-08-21T17:35:28.224Z,45.4
2017-08-21T17:37:53.793Z,45.49
2017-08-21T17:40:18.589Z,44.91
2017-08-21T17:42:43.121Z,45.98
2017-08-21T17:45:07.964Z,45.28
2017-08-21T17:49:32.902Z,45.1
2017-08-21T17:51:57.003Z,45.88
2017-08-21T17:54:21.486Z,45.3
2017-08-21T17:56:45.941Z,45.2
2017-08-21T18:01:44.726Z,46.03
2017-08-21T18:04:09.411Z,46.7
2017-08-21T18:06:34.481Z,47.74
2017-08-21T18:09:02.628Z,48.23
2017-08-21T18:11:35.724Z,48.16
2017-08-21T18:14:00.575Z,47.94
2017-08-21T18:16:25.255Z,48.13
2017-08-21T18:20:03.233Z,49.29
2017-08-21T18:22:27.269Z,50.13
2017-08-21T18:24:51.864Z,49.75
2017-08-21T18:27:16.292Z,49.97
2017-08-21T18:29:40.769Z,49.85
2017-08-21T18:32:05.226Z,50.62
2017-08-21T18:34:30.628Z,50.26
2017-08-21T18:36:59.244Z,49.97
2017-08-21T18:39:30.283Z,50.43
2017-08-21T18:43:45.109Z,50.13
2017-08-21T18:46:10.044Z,51.46
2017-08-21T18:48:35.176Z,51.27
2017-08-21T18:51:00.889Z,51.56
2017-08-21T18:53:25.919Z,51.27
2017-08-21T18:55:50.655Z,51.65
2017-08-21T18:58:14.944Z,52.23
2017-08-21T19:00:39.353Z,52.33
2017-08-21T19:03:06.158Z,52.14
2017-08-21T19:05:44.184Z,52.72
2017-08-21T19:07:48.582Z,53.39
2017-08-21T19:14:41.695Z,54.05
2017-08-21T19:19:16.947Z,54.69
2017-08-21T19:26:35.398Z,54.82
2017-08-21T19:29:00.094Z,55.01
2017-08-21T19:31:26.033Z,54.72
2017-08-21T19:33:50.528Z,55.1
2017-08-21T19:36:15.200Z,55.88
2017-08-21T19:38:39.688Z,56.52
2017-08-21T19:41:04.199Z,56.62
2017-08-21T19:43:28.419Z,58.33
2017-08-21T19:45:52.912Z,59
2017-08-21T19:48:17.338Z,59.36
2017-08-21T19:50:48.460Z,60.03
2017-08-21T19:53:12.778Z,59.87
2017-08-21T19:55:37.303Z,59.97
2017-08-21T19:58:01.479Z,59.97
2017-08-21T20:00:25.781Z,59.78
2017-08-21T20:02:49.930Z,60.26
2017-08-21T20:05:14.274Z,59.97
2017-08-21T20:07:38.334Z,60.45
2017-08-21T20:10:02.731Z,61.03
2017-08-21T20:12:27.118Z,60.45
2017-08-21T20:14:52.503Z,61.1
2017-08-21T20:17:17.209Z,61.68
2017-08-21T20:19:41.575Z,62.32
2017-08-21T20:22:06.123Z,62.9
2017-08-21T20:24:30.498Z,63.95
2017-08-21T20:26:54.624Z,64.15
2017-08-21T20:29:19.030Z,64.34
2017-08-21T20:31:44.482Z,65.37
2017-08-21T20:34:08.536Z,64.98
2017-08-21T20:36:33.852Z,65.27
2017-08-21T20:38:58.570Z,65.08
2017-08-21T20:41:23.430Z,64.98
2017-08-21T20:43:48.760Z,64.98
2017-08-21T20:46:14.878Z,65.05
2017-08-21T20:50:14.467Z,65.85
2017-08-21T20:52:38.633Z,65.37
2017-08-21T20:55:03.319Z,65.37
2017-08-21T20:57:27.311Z,65.27
2017-08-21T20:59:52.168Z,65.08
2017-08-21T21:02:16.437Z,65.91
2017-08-21T21:04:40.658Z,66.04
2017-08-21T21:07:04.879Z,65.94
2017-08-21T21:09:29.043Z,65.56
2017-08-21T21:11:53.083Z,65.85
2017-08-21T21:14:17.142Z,64.98
2017-08-21T21:16:41.386Z,65.17
2017-08-21T21:19:05.539Z,65.46
2017-08-21T21:21:29.598Z,66.04
2017-08-21T21:23:53.719Z,66.78
2017-08-21T21:26:18.067Z,66.71
2017-08-21T21:28:42.034Z,66.71
2017-08-21T21:31:06.423Z,66.42
2017-08-21T21:33:30.667Z,67.26
2017-08-21T21:35:34.473Z,67.65
2017-08-21T21:37:58.746Z,66.71
2017-08-21T21:40:22.969Z,66.65
2017-08-21T21:42:47.071Z,66.62
2017-08-21T21:45:11.476Z,66.91
2017-08-21T21:47:35.567Z,66.71
2017-08-21T21:49:59.751Z,66.52
2017-08-21T21:52:23.763Z,66.24
2017-08-21T21:54:47.894Z,66.42
2017-08-21T21:57:12.998Z,65.56
2017-08-21T21:59:37.209Z,66.68
2017-08-21T22:02:01.264Z,66.81
2017-08-21T22:06:01.653Z,66.81
2017-08-21T22:08:17.281Z,66.42
2017-08-21T22:10:41.374Z,66.49
2017-08-21T22:13:05.453Z,69.57
2017-08-21T22:15:29.535Z,70.24
2017-08-21T22:17:53.564Z,70.92
2017-08-21T22:20:17.681Z,71.78
2017-08-21T22:22:41.628Z,72.17
2017-08-21T22:24:57.193Z,72.52
2017-08-21T22:27:12.828Z,73
2017-08-21T22:29:36.818Z,72.32
2017-08-21T22:33:37.116Z,73.38
2017-08-21T22:36:01.138Z,73.77
2017-08-21T22:38:16.710Z,73.28
2017-08-21T22:40:18.582Z,73.38
2017-08-21T22:42:42.667Z,73.19
2017-08-21T22:45:06.607Z,73.54
2017-08-21T22:47:30.618Z,73.38
2017-08-21T22:49:54.575Z,73.38
2017-08-21T22:52:18.585Z,73.57
2017-08-21T22:54:42.559Z,72.52
2017-08-21T22:58:28.759Z,72.9
2017-08-21T23:00:52.745Z,72.8
2017-08-21T23:02:54.683Z,72.9
2017-08-21T23:05:18.687Z,73.86
2017-08-21T23:07:42.671Z,73.77
2017-08-21T23:10:06.610Z,73.73
2017-08-21T23:12:30.618Z,74.11
2017-08-21T23:14:54.595Z,74.21
2017-08-21T23:17:18.608Z,73.57
2017-08-21T23:21:18.880Z,74.11
2017-08-21T23:23:42.906Z,74.21
2017-08-21T23:25:53.260Z,74.21
2017-08-21T23:27:55.128Z,73.63
2017-08-21T23:30:19.112Z,73.25
2017-08-21T23:32:34.686Z,74.02
2017-08-21T23:34:58.691Z,74.88
2017-08-21T23:37:22.632Z,74.46
2017-08-21T23:39:24.485Z,73.83
2017-08-21T23:41:48.491Z,74.65
2017-08-21T23:44:04.042Z,74.5
2017-08-21T23:46:28.050Z,75.23
2017-08-21T23:48:29.910Z,75.52
2017-08-21T23:50:53.891Z,75.57
2017-08-21T23:53:17.762Z,74.85
2017-08-21T23:55:41.732Z,75.42
2017-08-21T23:57:57.187Z,75.96
